Time;durP1;ratioP1;P1;durP2;ratioP2;P2;SDS_P1;SDS_P2;PMS_P1;PMS_P2;Temp;Humidity;BMP_temperature;BMP_pressure;BME280_temperature;BME280_humidity;BME280_pressure;Samples;Min_cycle;Max_cycle;Signal;HPM_P1;HPM_P2
2022/03/22 00:01:52;;;;;;;0.00;0.00;;;5.30;61.80;;;;;;5141480;27;20201;-65
2022/03/22 00:04:18;;;;;;;0.00;0.00;;;5.20;61.60;;;;;;5122524;27;20057;-66
2022/03/22 00:06:44;;;;;;;0.00;0.00;;;5.20;62.50;;;;;;5141307;27;20033;-74
2022/03/22 00:09:10;;;;;;;0.00;0.00;;;5.20;62.70;;;;;;5122486;27;20176;-67
2022/03/22 00:11:36;;;;;;;0.00;0.00;;;5.20;64.10;;;;;;5141602;27;20294;-76
2022/03/22 00:14:02;;;;;;;0.00;0.00;;;5.10;63.50;;;;;;5141355;27;20015;-65
2022/03/22 00:16:29;;;;;;;0.00;0.00;;;5.10;62.10;;;;;;5122737;27;20041;-65
2022/03/22 00:18:55;;;;;;;0.00;0.00;;;5.10;63.50;;;;;;5122537;27;20360;-65
2022/03/22 00:21:21;;;;;;;0.00;0.00;;;5.00;64.20;;;;;;5140424;27;20023;-71
2022/03/22 00:23:47;;;;;;;0.28;0.28;;;5.00;64.40;;;;;;5141108;27;20011;-66
2022/03/22 00:26:13;;;;;;;0.00;0.00;;;4.90;64.10;;;;;;5105261;27;20019;-66
2022/03/22 00:28:39;;;;;;;0.00;0.00;;;4.90;64.70;;;;;;5140158;27;20302;-67
2022/03/22 00:31:07;;;;;;;0.00;0.00;;;4.90;63.30;;;;;;5156340;27;20023;-73
2022/03/22 00:33:32;;;;;;;0.00;0.00;;;4.90;64.00;;;;;;5141304;27;20014;-65
2022/03/22 00:35:59;;;;;;;0.00;0.00;;;4.80;63.90;;;;;;5141005;27;20064;-65
2022/03/22 00:38:26;;;;;;;0.00;0.00;;;4.80;64.00;;;;;;5122005;27;20246;-71
2022/03/22 00:40:52;;;;;;;0.00;0.00;;;4.90;64.60;;;;;;5140600;27;20019;-66
2022/03/22 00:43:19;;;;;;;0.00;0.00;;;4.80;63.40;;;;;;5156157;27;20104;-70
2022/03/22 00:45:47;;;;;;;0.00;0.00;;;4.70;63.60;;;;;;5122431;27;20026;-75
2022/03/22 00:48:14;;;;;;;0.00;0.00;;;4.70;64.30;;;;;;5155369;27;20055;-67
2022/03/22 00:50:43;;;;;;;0.00;0.00;;;4.70;63.70;;;;;;5140447;27;20060;-70
2022/03/22 00:53:09;;;;;;;0.00;0.00;;;4.70;63.80;;;;;;5121231;27;20206;-69
2022/03/22 00:55:36;;;;;;;0.00;0.00;;;4.70;64.30;;;;;;5140633;27;20082;-69
2022/03/22 00:58:03;;;;;;;0.00;0.00;;;4.70;63.80;;;;;;5121810;27;20015;-64
2022/03/22 01:00:30;;;;;;;0.00;0.00;;;4.60;63.70;;;;;;5140631;27;20023;-64
2022/03/22 01:02:58;;;;;;;0.00;0.00;;;4.60;64.00;;;;;;5139726;27;20060;-66
2022/03/22 01:05:25;;;;;;;;;;;4.60;65.30;;;;;;5140384;27;20011;-74
2022/03/22 01:07:54;;;;;;;0.00;0.00;;;4.60;64.60;;;;;;5140261;27;19978;-65
2022/03/22 01:10:21;;;;;;;0.00;0.00;;;4.50;65.50;;;;;;5139219;27;20023;-65
2022/03/22 01:12:48;;;;;;;0.00;0.00;;;4.50;66.10;;;;;;5121372;27;20290;-65
2022/03/22 01:15:32;;;;;;;0.00;0.00;;;4.50;66.20;;;;;;5120841;27;20023;-65
2022/03/22 01:18:01;;;;;;;0.00;0.00;;;4.40;66.20;;;;;;5139749;27;20083;-65
2022/03/22 01:20:27;;;;;;;0.00;0.00;;;4.40;65.20;;;;;;5121118;27;20098;-65
2022/03/22 01:22:54;;;;;;;0.00;0.00;;;4.40;63.90;;;;;;5140125;27;20019;-67
2022/03/22 01:25:27;;;;;;;0.00;0.00;;;4.30;64.50;;;;;;5139011;27;20182;-65
2022/03/22 01:27:54;;;;;;;0.00;0.00;;;4.30;64.10;;;;;;5139963;27;20007;-70
2022/03/22 01:30:22;;;;;;;0.00;0.00;;;4.30;63.70;;;;;;5139313;27;20190;-65
2022/03/22 01:32:52;;;;;;;0.00;0.00;;;4.20;63.30;;;;;;5121079;27;20045;-67
2022/03/22 01:35:19;;;;;;;0.00;0.00;;;4.20;63.50;;;;;;5120701;27;20392;-65
2022/03/22 01:37:50;;;;;;;0.00;0.00;;;4.20;65.10;;;;;;5120947;27;20019;-73
2022/03/22 01:40:18;;;;;;;0.00;0.00;;;4.20;63.70;;;;;;5137756;27;20298;-65
2022/03/22 01:42:44;;;;;;;0.00;0.00;;;4.20;64.60;;;;;;5139625;27;20044;-65
2022/03/22 01:45:10;;;;;;;0.00;0.00;;;4.10;64.80;;;;;;5138675;27;20019;-71
2022/03/22 01:47:38;;;;;;;0.00;0.00;;;4.10;63.80;;;;;;5138964;27;20019;-73
2022/03/22 01:50:05;;;;;;;0.00;0.00;;;4.30;63.60;;;;;;5138776;27;20298;-65
2022/03/22 01:52:34;;;;;;;0.00;0.00;;;4.10;63.50;;;;;;5139151;27;20336;-65
2022/03/22 01:55:01;;;;;;;0.00;0.00;;;4.10;63.80;;;;;;5138876;27;20072;-74
2022/03/22 01:57:30;;;;;;;0.00;0.00;;;4.10;64.00;;;;;;5120150;27;20030;-67
2022/03/22 01:59:56;;;;;;;0.00;0.00;;;4.00;64.20;;;;;;5155316;27;20027;-66
2022/03/22 02:05:59;;;;;;;0.00;0.00;;;4.00;65.20;;;;;;5138637;27;20038;-70
2022/03/22 02:08:02;;;;;;;0.13;0.13;;;4.00;66.20;;;;;;5124629;27;20111;-75
2022/03/22 02:10:28;;;;;;;0.00;0.00;;;4.00;67.10;;;;;;5137833;27;20061;-64
2022/03/22 02:12:54;;;;;;;0.00;0.00;;;4.00;66.50;;;;;;5138991;27;20253;-71
2022/03/22 02:15:20;;;;;;;0.00;0.00;;;4.00;66.40;;;;;;5138190;27;20092;-63
2022/03/22 02:17:46;;;;;;;0.00;0.00;;;3.90;65.40;;;;;;5138688;27;20015;-66
2022/03/22 02:20:15;;;;;;;0.00;0.00;;;3.90;64.60;;;;;;5138123;27;20051;-64
2022/03/22 02:22:50;;;;;;;0.00;0.00;;;3.90;65.10;;;;;;5135885;27;20293;-64
2022/03/22 02:25:16;;;;;;;0.00;0.00;;;3.80;64.60;;;;;;5137683;27;20140;-66
2022/03/22 02:27:47;;;;;;;0.00;0.00;;;3.80;64.70;;;;;;5138727;27;20204;-66
2022/03/22 02:30:13;;;;;;;0.00;0.00;;;3.80;64.80;;;;;;5137841;27;20209;-73
2022/03/22 02:32:40;;;;;;;0.00;0.00;;;3.80;64.50;;;;;;5138521;27;20358;-66
2022/03/22 02:35:07;;;;;;;0.00;0.00;;;3.80;64.80;;;;;;5119850;27;20206;-65
2022/03/22 02:37:32;;;;;;;0.00;0.00;;;3.80;66.20;;;;;;5138953;27;20034;-65
2022/03/22 02:39:58;;;;;;;0.00;0.00;;;3.80;65.90;;;;;;5154411;27;20302;-65
2022/03/22 02:42:24;;;;;;;0.00;0.00;;;3.80;65.90;;;;;;5137888;27;20139;-75
2022/03/22 02:44:50;;;;;;;0.00;0.00;;;3.80;66.40;;;;;;5120010;27;20038;-65
2022/03/22 02:47:16;;;;;;;0.00;0.00;;;3.80;66.40;;;;;;5137945;28;20030;-65
2022/03/22 02:49:41;;;;;;;0.00;0.00;;;3.80;66.20;;;;;;5138193;27;20042;-65
2022/03/22 02:52:07;;;;;;;0.00;0.00;;;3.70;65.90;;;;;;5137503;28;20082;-73
2022/03/22 02:54:33;;;;;;;0.00;0.00;;;3.70;66.40;;;;;;5154882;27;20038;-64
2022/03/22 02:56:59;;;;;;;0.00;0.00;;;3.70;66.70;;;;;;5138369;28;20094;-66
2022/03/22 02:59:24;;;;;;;0.00;0.00;;;3.70;66.50;;;;;;5137860;28;20030;-68
2022/03/22 03:01:50;;;;;;;0.00;0.00;;;3.60;66.20;;;;;;5138406;28;20286;-65
2022/03/22 03:04:16;;;;;;;0.00;0.00;;;3.70;66.20;;;;;;5137599;28;20015;-63
2022/03/22 03:06:41;;;;;;;0.00;0.00;;;3.60;66.40;;;;;;5138486;28;20027;-65
2022/03/22 03:09:07;;;;;;;0.00;0.00;;;3.60;66.80;;;;;;5137610;28;20023;-70
2022/03/22 03:11:33;;;;;;;0.00;0.00;;;3.60;67.40;;;;;;5138456;28;20302;-64
2022/03/22 03:16:43;;;;;;;0.00;0.00;;;3.60;68.10;;;;;;5138304;28;20194;-63
2022/03/22 03:19:08;;;;;;;0.00;0.00;;;4.00;68.30;;;;;;5137054;28;20054;-73
2022/03/22 03:21:34;;;;;;;0.00;0.00;;;3.50;67.80;;;;;;5138132;28;20302;-73
2022/03/22 03:24:00;;;;;;;0.00;0.00;;;3.50;68.10;;;;;;5137938;28;20350;-65
2022/03/22 03:26:26;;;;;;;0.00;0.00;;;3.50;68.20;;;;;;5137570;28;20299;-64
2022/03/22 03:28:52;;;;;;;0.00;0.00;;;3.50;67.90;;;;;;5138121;28;20294;-64
2022/03/22 03:31:17;;;;;;;0.00;0.00;;;3.50;68.40;;;;;;5137110;28;20244;-68
2022/03/22 03:33:43;;;;;;;0.10;0.10;;;3.50;68.60;;;;;;5119631;28;20306;-63
2022/03/22 03:36:28;;;;;;;0.00;0.00;;;3.50;69.40;;;;;;5119054;28;20019;-66
2022/03/22 03:38:53;;;;;;;0.00;0.00;;;3.50;69.70;;;;;;5119629;28;20063;-66
2022/03/22 03:47:03;;;;;;;0.00;0.00;;;3.40;70.10;;;;;;5137709;28;20034;-70
2022/03/22 03:47:04;;;;;;;0.00;0.00;;;3.50;69.70;;;;;;5122153;28;20095;-67
2022/03/22 03:49:35;;;;;;;0.00;0.00;;;3.40;70.40;;;;;;5132527;28;20062;-77
2022/03/22 03:52:01;;;;;;;0.22;0.17;;;3.40;69.40;;;;;;5120086;28;20028;-78
2022/03/22 03:54:27;;;;;;;0.00;0.00;;;3.30;69.60;;;;;;5138024;28;20011;-79
2022/03/22 03:56:53;;;;;;;0.00;0.00;;;3.30;70.00;;;;;;5138121;28;20214;-79
2022/03/22 03:59:19;;;;;;;0.00;0.00;;;3.30;68.30;;;;;;5153193;27;20236;-79
2022/03/22 04:01:44;;;;;;;0.00;0.00;;;3.30;68.10;;;;;;5119735;28;20030;-77
2022/03/22 04:04:10;;;;;;;0.00;0.00;;;3.30;68.50;;;;;;5141001;27;20249;-77
2022/03/22 04:06:36;;;;;;;0.00;0.00;;;3.30;68.80;;;;;;5141819;27;20019;-79
2022/03/22 04:09:02;;;;;;;0.00;0.00;;;3.30;68.60;;;;;;5157797;27;20268;-78
2022/03/22 04:11:27;;;;;;;0.00;0.00;;;3.30;68.90;;;;;;5156990;27;20056;-79
2022/03/22 04:13:53;;;;;;;0.00;0.00;;;3.30;68.30;;;;;;5123474;27;20037;-78
2022/03/22 04:16:19;;;;;;;0.00;0.00;;;3.30;69.00;;;;;;5122341;27;20053;-78
2022/03/22 04:18:44;;;;;;;0.00;0.00;;;3.20;69.10;;;;;;5134911;27;20015;-79
2022/03/22 04:21:11;;;;;;;0.00;0.00;;;3.20;69.50;;;;;;5157195;27;20023;-79
2022/03/22 04:23:37;;;;;;;0.00;0.00;;;3.30;69.70;;;;;;5157794;27;20015;-79
2022/03/22 04:26:03;;;;;;;0.15;0.15;;;3.20;70.30;;;;;;5142356;27;20405;-79
2022/03/22 04:33:58;;;;;;;0.00;0.00;;;3.10;69.50;;;;;;5141833;27;20068;-85
2022/03/22 04:36:24;;;;;;;0.00;0.00;;;3.10;70.40;;;;;;5122749;27;20242;-81
2022/03/22 04:38:50;;;;;;;0.00;0.00;;;3.10;70.30;;;;;;5157869;27;20023;-84
2022/03/22 04:41:16;;;;;;;0.00;0.00;;;3.10;71.10;;;;;;5156736;27;20023;-84
2022/03/22 04:43:41;;;;;;;0.00;0.00;;;3.10;70.70;;;;;;5122797;27;20101;-84
2022/03/22 04:46:07;;;;;;;0.00;0.00;;;3.10;69.80;;;;;;5140828;27;20023;-81
2022/03/22 04:48:34;;;;;;;0.00;0.00;;;3.10;70.80;;;;;;5141619;27;20310;-85
2022/03/22 04:56:43;;;;;;;0.00;0.00;;;3.10;70.80;;;;;;5140030;27;20022;-79
2022/03/22 04:59:09;;;;;;;0.00;0.00;;;3.10;70.50;;;;;;5150774;27;20023;-79
2022/03/22 05:01:35;;;;;;;0.00;0.00;;;3.10;70.60;;;;;;5140186;27;20078;-78
2022/03/22 05:04:01;;;;;;;0.00;0.00;;;3.10;70.40;;;;;;5140779;27;20072;-81
2022/03/22 05:06:26;;;;;;;0.00;0.00;;;3.10;70.30;;;;;;5139997;27;20286;-80
2022/03/22 05:08:56;;;;;;;0.00;0.00;;;3.10;71.60;;;;;;5140922;27;20076;-79
2022/03/22 05:11:22;;;;;;;0.00;0.00;;;3.10;71.70;;;;;;5140207;27;20024;-80
2022/03/22 05:13:48;;;;;;;0.00;0.00;;;3.00;71.20;;;;;;5122025;27;20068;-79
2022/03/22 05:16:14;;;;;;;0.00;0.00;;;3.10;71.60;;;;;;5121587;27;20038;-76
2022/03/22 05:18:41;;;;;;;0.20;0.20;;;3.10;72.90;;;;;;5140677;27;20047;-80
2022/03/22 05:21:07;;;;;;;0.00;0.00;;;3.10;72.30;;;;;;5139879;27;20210;-80
2022/03/22 05:23:36;;;;;;;0.00;0.00;;;3.10;72.70;;;;;;5140279;27;20026;-80
2022/03/22 05:26:04;;;;;;;0.00;0.00;;;3.10;72.90;;;;;;5140666;27;20046;-81
2022/03/22 05:28:30;;;;;;;0.00;0.00;;;3.10;72.90;;;;;;5140541;27;20023;-81
2022/03/22 05:30:56;;;;;;;0.00;0.00;;;3.30;73.70;;;;;;5140334;27;20015;-81
2022/03/22 05:33:23;;;;;;;0.00;0.00;;;3.10;73.40;;;;;;5140242;27;20026;-78
2022/03/22 05:35:48;;;;;;;0.00;0.00;;;3.20;74.00;;;;;;5121530;27;20016;-78
2022/03/22 05:38:15;;;;;;;0.00;0.00;;;3.20;74.90;;;;;;5121045;27;20119;-77
2022/03/22 05:40:41;;;;;;;0.00;0.00;;;3.20;75.00;;;;;;5140167;27;20023;-79
2022/03/22 05:43:07;;;;;;;0.00;0.00;;;3.20;74.20;;;;;;5139738;27;20019;-78
2022/03/22 05:45:33;;;;;;;0.00;0.00;;;3.20;74.50;;;;;;5121695;27;20015;-82
2022/03/22 05:48:00;;;;;;;0.00;0.00;;;3.20;73.90;;;;;;5140180;27;20129;-81
2022/03/22 05:50:27;;;;;;;0.00;0.00;;;3.20;72.90;;;;;;5139405;27;20019;-81
2022/03/22 05:52:53;;;;;;;0.00;0.00;;;3.20;72.30;;;;;;5140155;27;20043;-81
2022/03/22 05:55:18;;;;;;;0.00;0.00;;;3.30;72.90;;;;;;5133666;27;20064;-81
2022/03/22 05:57:44;;;;;;;0.00;0.00;;;3.30;72.30;;;;;;5139640;27;20023;-80
2022/03/22 06:00:11;;;;;;;0.00;0.00;;;3.30;71.30;;;;;;5138975;27;20246;-79
2022/03/22 06:02:39;;;;;;;0.00;0.00;;;3.30;71.80;;;;;;5139851;27;20140;-79
2022/03/22 06:05:09;;;;;;;0.00;0.00;;;3.30;69.90;;;;;;5140132;27;20075;-76
2022/03/22 06:07:36;;;;;;;0.00;0.00;;;3.30;71.10;;;;;;5123497;27;20155;-78
2022/03/22 06:10:02;;;;;;;0.00;0.00;;;3.40;72.00;;;;;;5142389;27;20015;-80
2022/03/22 06:12:39;;;;;;;0.00;0.00;;;3.40;72.70;;;;;;5142911;27;20083;-81
2022/03/22 06:15:17;;;;;;;0.00;0.00;;;3.40;73.00;;;;;;5123689;27;20058;-78
2022/03/22 06:17:51;;;;;;;0.00;0.00;;;3.50;72.30;;;;;;5122982;27;20079;-80
2022/03/22 06:20:23;;;;;;;0.00;0.00;;;3.50;72.30;;;;;;5120964;27;20034;-82
2022/03/22 06:22:49;;;;;;;0.00;0.00;;;3.50;73.20;;;;;;5123517;27;20278;-81
2022/03/22 06:25:16;;;;;;;0.00;0.00;;;3.60;73.00;;;;;;5139762;27;20019;-79
2022/03/22 06:27:43;;;;;;;0.00;0.00;;;3.60;73.30;;;;;;5121618;27;20159;-80
2022/03/22 06:30:10;;;;;;;0.00;0.00;;;3.70;73.20;;;;;;5139364;27;20082;-76
2022/03/22 06:32:47;;;;;;;0.00;0.00;;;3.70;74.70;;;;;;5139676;27;20011;-81
2022/03/22 06:35:18;;;;;;;0.00;0.00;;;3.70;73.40;;;;;;5120731;27;20015;-78
2022/03/22 06:37:44;;;;;;;0.00;0.00;;;3.80;73.70;;;;;;5138384;27;20050;-69
2022/03/22 06:40:11;;;;;;;0.00;0.00;;;3.80;72.20;;;;;;5139253;27;20023;-79
2022/03/22 06:42:37;;;;;;;0.00;0.00;;;3.90;71.60;;;;;;5119535;28;20080;-76
2022/03/22 06:45:05;;;;;;;0.00;0.00;;;4.00;72.30;;;;;;5138660;27;20035;-84
2022/03/22 06:47:32;;;;;;;0.00;0.00;;;4.00;71.50;;;;;;5120690;28;20019;-80
2022/03/22 06:49:58;;;;;;;0.00;0.00;;;4.10;72.90;;;;;;5139206;28;20261;-80
2022/03/22 06:52:23;;;;;;;0.00;0.00;;;4.10;73.60;;;;;;5120252;28;20020;-80
2022/03/22 06:54:49;;;;;;;0.32;0.30;;;4.20;73.20;;;;;;5139054;28;20065;-78
2022/03/22 06:57:15;;;;;;;0.00;0.00;;;4.20;70.00;;;;;;5137118;28;20023;-77
2022/03/22 06:59:41;;;;;;;0.00;0.00;;;4.40;68.70;;;;;;5120283;28;20050;-78
2022/03/22 07:02:10;;;;;;;0.00;0.00;;;4.40;71.90;;;;;;5119978;28;20023;-77
2022/03/22 07:04:36;;;;;;;0.00;0.00;;;4.50;72.10;;;;;;5138629;28;20015;-74
2022/03/22 07:07:02;;;;;;;0.00;0.00;;;4.50;73.10;;;;;;5138305;28;20068;-81
2022/03/22 07:09:28;;;;;;;0.00;0.00;;;4.50;72.80;;;;;;5119020;28;20029;-79
2022/03/22 07:11:56;;;;;;;0.00;0.00;;;4.60;72.50;;;;;;5138295;28;20261;-78
2022/03/22 07:14:23;;;;;;;0.00;0.00;;;4.60;70.60;;;;;;5153474;27;20029;-78
2022/03/22 07:16:49;;;;;;;0.00;0.00;;;4.60;71.80;;;;;;5137813;28;20027;-78
2022/03/22 07:19:18;;;;;;;0.00;0.00;;;4.70;73.00;;;;;;5119212;28;20243;-76
2022/03/22 07:21:45;;;;;;;0.00;0.00;;;4.80;73.00;;;;;;5138291;28;20265;-80
2022/03/22 07:24:12;;;;;;;0.00;0.00;;;4.80;72.40;;;;;;5137966;28;20026;-80
2022/03/22 07:26:40;;;;;;;0.00;0.00;;;4.90;71.50;;;;;;5119717;28;20054;-79
2022/03/22 07:29:06;;;;;;;0.00;0.00;;;5.00;71.00;;;;;;5138133;28;20023;-79
2022/03/22 07:31:37;;;;;;;0.00;0.00;;;5.10;70.60;;;;;;5137583;28;20019;-80
2022/03/22 07:34:11;;;;;;;0.00;0.00;;;5.20;70.70;;;;;;5137780;28;20078;-80
2022/03/22 07:36:39;;;;;;;0.00;0.00;;;5.30;69.80;;;;;;5138077;27;20015;-78
2022/03/22 07:39:06;;;;;;;0.00;0.00;;;5.30;68.00;;;;;;5142261;27;20271;-75
2022/03/22 07:41:33;;;;;;;0.00;0.00;;;5.40;71.20;;;;;;5142907;27;20030;-79
2022/03/22 07:44:01;;;;;;;0.00;0.00;;;5.40;70.70;;;;;;5123451;27;20023;-79
2022/03/22 07:46:27;;;;;;;0.00;0.00;;;5.50;71.70;;;;;;5122944;27;20233;-81
2022/03/22 07:48:53;;;;;;;0.00;0.00;;;5.50;71.50;;;;;;5093291;28;20046;-78
2022/03/22 07:54:04;;;;;;;0.00;0.00;;;5.70;69.70;;;;;;5017294;28;20224;-79
2022/03/22 07:56:33;;;;;;;0.00;0.00;;;5.80;72.20;;;;;;5016640;28;20022;-79
2022/03/22 07:58:59;;;;;;;0.00;0.00;;;5.90;69.10;;;;;;5017089;28;20022;-79
2022/03/22 08:01:25;;;;;;;0.00;0.00;;;6.00;68.80;;;;;;5016425;28;20347;-79
2022/03/22 08:03:51;;;;;;;0.00;0.00;;;6.00;71.30;;;;;;5017239;28;20018;-76
2022/03/22 08:06:17;;;;;;;0.00;0.00;;;6.20;71.90;;;;;;5016541;28;20085;-80
2022/03/22 08:08:44;;;;;;;0.00;0.00;;;6.20;69.10;;;;;;5085437;28;20021;-79
2022/03/22 08:11:10;;;;;;;0.00;0.00;;;6.30;67.90;;;;;;5016154;28;20204;-78
2022/03/22 08:13:37;;;;;;;0.00;0.00;;;6.40;68.90;;;;;;5016902;28;20244;-78
2022/03/22 08:16:04;;;;;;;0.00;0.00;;;6.50;67.80;;;;;;5084877;28;20046;-79
2022/03/22 08:18:30;;;;;;;0.00;0.00;;;6.60;68.70;;;;;;5016204;28;20022;-76
2022/03/22 08:20:56;;;;;;;0.00;0.00;;;6.60;63.60;;;;;;5016598;28;20060;-78
2022/03/22 08:23:22;;;;;;;0.00;0.00;;;6.70;67.50;;;;;;5016420;28;20018;-78
2022/03/22 08:25:49;;;;;;;0.00;0.00;;;6.80;66.50;;;;;;5016615;28;20022;-79
2022/03/22 08:28:15;;;;;;;0.00;0.00;;;6.80;66.30;;;;;;5084287;28;20042;-75
2022/03/22 08:30:42;;;;;;;0.00;0.00;;;6.90;62.40;;;;;;5085573;28;20060;-78
2022/03/22 08:33:09;;;;;;;0.00;0.00;;;7.10;63.80;;;;;;5084531;28;20242;-79
2022/03/22 08:35:47;;;;;;;0.00;0.00;;;7.20;63.00;;;;;;5017165;28;20017;-78
2022/03/22 08:38:15;;;;;;;0.00;0.00;;;7.30;61.30;;;;;;5016321;28;20025;-78
2022/03/22 08:40:41;;;;;;;0.00;0.00;;;7.40;62.20;;;;;;5084997;28;20316;-79
2022/03/22 08:43:08;;;;;;;0.00;0.00;;;7.50;62.30;;;;;;5083819;28;20040;-75
2022/03/22 08:45:35;;;;;;;0.00;0.00;;;7.50;63.20;;;;;;5016906;28;20232;-80
2022/03/22 08:48:09;;;;;;;0.00;0.00;;;7.60;61.10;;;;;;5036613;27;20043;-76
2022/03/22 08:50:35;;;;;;;0.00;0.00;;;7.70;60.80;;;;;;5121982;27;20019;-78
2022/03/22 08:53:02;;;;;;;0.00;0.00;;;7.80;60.40;;;;;;5122578;27;20019;-79
2022/03/22 08:55:29;;;;;;;0.00;0.00;;;7.90;58.80;;;;;;5139982;27;20015;-76
2022/03/22 08:57:55;;;;;;;0.20;0.20;;;8.00;64.00;;;;;;5156029;27;20041;-79
2022/03/22 09:00:21;;;;;;;0.00;0.00;;;8.00;62.90;;;;;;5139417;27;20031;-80
2022/03/22 09:02:50;;;;;;;0.00;0.00;;;8.20;62.20;;;;;;5140816;27;20019;-80
2022/03/22 09:08:01;;;;;;;0.00;0.00;;;8.30;63.30;;;;;;5140702;27;20022;-78
2022/03/22 09:10:29;;;;;;;0.00;0.00;;;8.40;63.10;;;;;;5139309;27;20019;-80
2022/03/22 09:12:55;;;;;;;0.00;0.00;;;8.50;65.60;;;;;;5140187;27;20198;-78
2022/03/22 09:15:26;;;;;;;0.00;0.00;;;8.50;63.60;;;;;;5121117;27;20015;-79
2022/03/22 09:17:52;;;;;;;0.00;0.00;;;8.50;63.90;;;;;;5139221;27;20046;-78
2022/03/22 09:20:19;;;;;;;0.00;0.00;;;8.60;64.80;;;;;;5117267;27;20172;-77
2022/03/22 09:22:48;;;;;;;0.00;0.00;;;8.80;60.00;;;;;;5119629;27;20294;-77
2022/03/22 09:25:15;;;;;;;0.00;0.00;;;9.10;54.20;;;;;;5139410;27;20065;-74
2022/03/22 09:27:43;;;;;;;0.00;0.00;;;9.30;55.50;;;;;;5121705;27;20026;-78
2022/03/22 09:30:11;;;;;;;0.00;0.00;;;9.40;56.70;;;;;;5139700;27;20030;-76
2022/03/22 09:32:38;;;;;;;0.00;0.00;;;9.50;59.00;;;;;;5121594;27;20023;-75
2022/03/22 09:35:06;;;;;;;0.00;0.00;;;9.60;57.20;;;;;;5140457;27;20252;-78
2022/03/22 09:37:35;;;;;;;0.10;0.00;;;9.60;57.60;;;;;;5139620;27;20019;-75
2022/03/22 09:40:01;;;;;;;0.00;0.00;;;9.60;55.90;;;;;;5121231;27;20489;-79
2022/03/22 09:42:27;;;;;;;0.00;0.00;;;9.70;57.50;;;;;;5120380;27;20329;-78
2022/03/22 09:44:54;;;;;;;0.00;0.00;;;9.90;54.50;;;;;;5139085;27;20019;-78
2022/03/22 09:47:20;;;;;;;0.00;0.00;;;10.10;56.90;;;;;;5135083;27;20168;-74
2022/03/22 09:49:46;;;;;;;0.00;0.00;;;10.10;58.20;;;;;;5136949;27;20088;-78
2022/03/22 09:52:12;;;;;;;0.00;0.00;;;10.20;54.90;;;;;;5138206;27;20289;-77
2022/03/22 09:54:41;;;;;;;0.00;0.00;;;10.30;54.30;;;;;;5139081;27;20015;-77
2022/03/22 09:57:07;;;;;;;0.00;0.00;;;10.50;50.50;;;;;;5155414;27;20087;-78
2022/03/22 09:59:36;;;;;;;0.00;0.00;;;10.50;52.10;;;;;;5154687;27;20027;-77
2022/03/22 10:02:06;;;;;;;0.00;0.00;;;10.70;55.50;;;;;;5139312;27;20072;-79
2022/03/22 10:04:39;;;;;;;0.00;0.00;;;10.70;55.50;;;;;;5139363;27;20042;-79
2022/03/22 10:07:07;;;;;;;0.03;0.03;;;10.80;55.00;;;;;;5139307;27;20054;-75
2022/03/22 10:09:36;;;;;;;0.00;0.00;;;10.80;53.40;;;;;;5139024;27;20091;-77
2022/03/22 10:12:03;;;;;;;0.00;0.00;;;11.00;49.20;;;;;;5139623;27;20022;-78
2022/03/22 10:14:40;;;;;;;0.00;0.00;;;11.20;53.80;;;;;;5119717;27;20356;-79
2022/03/22 10:17:13;;;;;;;0.00;0.00;;;11.30;51.90;;;;;;5120613;27;20015;-78
2022/03/22 10:19:45;;;;;;;0.00;0.00;;;11.40;48.00;;;;;;5139175;27;20355;-79
2022/03/22 10:22:12;;;;;;;0.00;0.00;;;11.50;50.70;;;;;;5138006;27;20019;-79
2022/03/22 10:25:05;;;;;;;0.00;0.00;;;11.60;46.70;;;;;;5138602;27;20019;-77
2022/03/22 10:27:38;;;;;;;0.00;0.00;;;11.80;47.70;;;;;;5128698;27;20037;-79
2022/03/22 10:30:06;;;;;;;0.00;0.00;;;11.90;47.50;;;;;;5120124;27;20185;-79
2022/03/22 10:32:36;;;;;;;0.00;0.00;;;12.20;50.10;;;;;;5120221;27;20023;-78
2022/03/22 10:35:14;;;;;;;0.43;0.00;;;12.50;47.70;;;;;;5139258;27;20086;-79
2022/03/22 10:37:51;;;;;;;0.00;0.00;;;13.60;43.50;;;;;;5138477;27;20111;-76
2022/03/22 10:40:29;;;;;;;0.00;0.00;;;14.80;47.20;;;;;;5137791;27;20023;-79
2022/03/22 10:42:58;;;;;;;0.00;0.00;;;16.10;49.10;;;;;;5138236;27;20020;-78
2022/03/22 10:45:27;;;;;;;0.10;0.10;;;16.90;46.90;;;;;;5138018;27;20142;-79
2022/03/22 10:47:54;;;;;;;0.00;0.00;;;17.60;40.80;;;;;;5138519;27;20019;-80
2022/03/22 10:50:20;;;;;;;0.00;0.00;;;18.10;43.20;;;;;;5137904;28;20046;-81
2022/03/22 10:52:54;;;;;;;0.00;0.00;;;18.50;46.90;;;;;;5154913;27;20020;-80
2022/03/22 10:55:21;;;;;;;0.00;0.00;;;18.90;44.10;;;;;;5137986;28;20019;-83
2022/03/22 10:57:54;;;;;;;0.00;0.00;;;19.00;45.00;;;;;;5119611;28;20039;-78
2022/03/22 11:00:20;;;;;;;0.00;0.00;;;19.10;41.60;;;;;;5118249;28;20094;-83
2022/03/22 11:02:49;;;;;;;0.00;0.00;;;19.70;41.90;;;;;;5119632;28;20042;-82
2022/03/22 11:05:17;;;;;;;0.00;0.00;;;20.00;39.10;;;;;;5118695;28;20023;-71
2022/03/22 11:07:43;;;;;;;0.00;0.00;;;20.10;41.70;;;;;;5137538;28;20091;-78
2022/03/22 11:10:09;;;;;;;0.00;0.00;;;20.30;42.30;;;;;;5137393;28;20241;-73
2022/03/22 11:12:35;;;;;;;0.00;0.00;;;20.30;43.30;;;;;;5139688;27;20019;-74
2022/03/22 11:15:03;;;;;;;0.00;0.00;;;20.10;35.90;;;;;;5141761;27;20120;-76
2022/03/22 11:17:36;;;;;;;0.00;0.00;;;19.80;33.50;;;;;;5140641;27;20040;-77
2022/03/22 11:20:06;;;;;;;0.00;0.00;;;19.90;41.80;;;;;;5123207;27;20027;-77
2022/03/22 11:22:32;;;;;;;0.00;0.00;;;19.90;36.50;;;;;;5140580;27;20042;-79
2022/03/22 11:25:09;;;;;;;0.00;0.00;;;19.40;38.20;;;;;;5122889;27;20237;-78
2022/03/22 11:27:35;;;;;;;0.00;0.00;;;19.20;38.30;;;;;;5140966;27;20068;-74
2022/03/22 11:30:03;;;;;;;0.00;0.00;;;19.10;38.00;;;;;;5141382;27;20050;-79
2022/03/22 11:35:24;;;;;;;0.00;0.00;;;19.20;36.10;;;;;;5140451;27;20329;-76
2022/03/22 11:37:55;;;;;;;0.00;0.00;;;19.60;37.30;;;;;;5157278;27;20023;-75
2022/03/22 11:43:13;;;;;;;0.00;0.00;;;19.80;37.00;;;;;;5141503;27;20076;-74
2022/03/22 11:46:10;;;;;;;0.00;0.00;;;19.80;39.70;;;;;;5122664;27;20068;-76
2022/03/22 11:48:38;;;;;;;0.00;0.00;;;19.70;42.70;;;;;;5141483;27;20047;-75
2022/03/22 11:51:05;;;;;;;;;;;19.40;32.30;;;;;;5141916;27;20031;-73
2022/03/22 11:53:44;;;;;;;0.00;0.00;;;19.10;32.10;;;;;;5140900;27;20224;-74
2022/03/22 11:56:11;;;;;;;0.00;0.00;;;18.80;33.50;;;;;;5141395;27;20030;-73
2022/03/22 11:58:37;;;;;;;0.00;0.00;;;19.10;39.40;;;;;;5141504;27;20367;-71
2022/03/22 12:01:14;;;;;;;0.00;0.00;;;19.00;36.40;;;;;;5124315;27;20023;-77
2022/03/22 12:03:49;;;;;;;0.00;0.00;;;18.90;37.10;;;;;;5142181;27;20019;-75
2022/03/22 12:06:16;;;;;;;0.00;0.00;;;18.60;31.60;;;;;;5141445;27;20027;-76
2022/03/22 12:08:43;;;;;;;0.00;0.00;;;18.40;34.20;;;;;;5141722;27;20023;-76
2022/03/22 12:11:16;;;;;;;0.00;0.00;;;18.20;32.00;;;;;;5123560;27;20063;-77
2022/03/22 12:13:49;;;;;;;0.00;0.00;;;18.20;36.80;;;;;;5142258;27;20034;-75
2022/03/22 12:16:15;;;;;;;0.00;0.00;;;18.00;32.30;;;;;;5141179;27;20083;-76
2022/03/22 12:18:41;;;;;;;0.00;0.00;;;18.00;37.80;;;;;;5141816;27;20027;-75
2022/03/22 12:21:21;;;;;;;0.00;0.00;;;17.90;38.60;;;;;;5141712;27;20019;-73
2022/03/22 12:23:47;;;;;;;0.00;0.00;;;17.80;38.40;;;;;;5140869;27;20020;-77
2022/03/22 12:26:13;;;;;;;0.00;0.00;;;17.80;40.90;;;;;;5141232;27;20023;-74
2022/03/22 12:28:50;;;;;;;0.00;0.00;;;17.60;34.40;;;;;;5141551;27;20076;-77
2022/03/22 12:31:21;;;;;;;0.00;0.00;;;17.40;35.30;;;;;;5122577;27;20023;-78
2022/03/22 12:33:50;;;;;;;0.00;0.00;;;17.30;38.70;;;;;;5141840;27;20270;-76
2022/03/22 12:36:19;;;;;;;0.00;0.00;;;17.20;40.60;;;;;;5141194;27;20051;-77
2022/03/22 12:38:44;;;;;;;0.00;0.00;;;17.00;35.80;;;;;;5141950;27;20094;-76
2022/03/22 12:41:10;;;;;;;0.00;0.00;;;16.80;33.30;;;;;;5142278;27;20126;-76
2022/03/22 12:43:36;;;;;;;0.00;0.00;;;16.70;38.90;;;;;;5140921;27;20015;-75
2022/03/22 12:46:02;;;;;;;0.00;0.00;;;16.50;36.50;;;;;;5141427;27;20068;-74
2022/03/22 12:48:30;;;;;;;0.00;0.00;;;16.40;40.20;;;;;;5156293;27;20046;-76
2022/03/22 12:50:56;;;;;;;0.00;0.00;;;16.20;40.40;;;;;;5141385;27;20103;-77
2022/03/22 12:53:22;;;;;;;0.00;0.00;;;16.00;37.10;;;;;;5140096;27;20046;-76
2022/03/22 12:55:48;;;;;;;0.00;0.00;;;15.90;40.20;;;;;;5156922;27;20336;-77
2022/03/22 12:58:14;;;;;;;0.00;0.00;;;15.70;36.60;;;;;;5122171;27;20026;-74
2022/03/22 13:00:41;;;;;;;0.00;0.00;;;15.70;42.60;;;;;;5122250;27;20054;-79
2022/03/22 13:03:11;;;;;;;0.00;0.00;;;15.60;40.70;;;;;;5122599;27;20016;-76
2022/03/22 13:05:47;;;;;;;0.00;0.00;;;15.50;44.10;;;;;;5140701;27;20046;-76
2022/03/22 13:08:18;;;;;;;0.00;0.00;;;15.50;39.30;;;;;;5117160;27;20030;-72
2022/03/22 13:15:01;;;;;;;0.00;0.00;;;15.30;39.10;;;;;;5140054;27;20125;-79
2022/03/22 13:16:29;;;;;;;0.00;0.00;;;15.30;35.60;;;;;;5140048;27;20060;-75
2022/03/22 13:18:59;;;;;;;0.00;0.00;;;15.30;38.20;;;;;;5122428;27;20027;-77
2022/03/22 13:21:26;;;;;;;0.00;0.00;;;15.30;40.40;;;;;;5140096;27;20023;-76
2022/03/22 13:24:00;;;;;;;0.00;0.00;;;15.30;37.50;;;;;;5122943;27;20022;-77
2022/03/22 13:26:27;;;;;;;0.00;0.00;;;15.30;41.70;;;;;;5141026;27;20291;-76
2022/03/22 13:28:52;;;;;;;0.00;0.00;;;15.30;36.60;;;;;;5122990;27;20046;-77
2022/03/22 13:31:22;;;;;;;0.00;0.00;;;15.30;37.90;;;;;;5157013;27;20023;-76
2022/03/22 13:33:54;;;;;;;0.00;0.00;;;15.30;39.70;;;;;;5141192;27;20019;-76